createdAt,value
2018-06-13T00:00:59.543Z,99288.47
2018-06-13T00:03:25.551Z,99294.26
2018-06-13T00:05:51.549Z,99292.31
2018-06-13T00:08:17.533Z,99292.45
2018-06-13T00:10:43.528Z,99287.88
2018-06-13T00:13:09.545Z,99284.42
2018-06-13T00:15:35.582Z,99287.39
2018-06-13T00:18:01.603Z,99282.30
2018-06-13T00:20:27.602Z,99273.20
2018-06-13T00:22:53.611Z,99276.21
2018-06-13T00:25:19.585Z,99276.41
2018-06-13T00:27:45.600Z,99277.84
2018-06-13T00:30:11.591Z,99270.46
2018-06-13T00:32:37.591Z,99270.89
2018-06-13T00:35:03.613Z,99272.11
2018-06-13T00:37:29.635Z,99270.40
2018-06-13T00:39:55.617Z,99264.42
2018-06-13T00:42:21.626Z,99271.86
2018-06-13T00:44:47.647Z,99272.94
2018-06-13T00:47:13.703Z,99272.33
2018-06-13T00:49:39.719Z,99269.03
2018-06-13T00:52:05.706Z,99273.46
2018-06-13T00:54:31.736Z,99272.05
2018-06-13T00:56:57.772Z,99271.25
2018-06-13T00:59:23.772Z,99269.91
2018-06-13T01:01:49.762Z,99275.14
2018-06-13T01:04:15.748Z,99269.37
2018-06-13T01:06:41.740Z,99274.47
2018-06-13T01:09:07.730Z,99274.17
2018-06-13T01:11:33.728Z,99271.61
2018-06-13T01:13:59.743Z,99272.86
2018-06-13T01:16:25.753Z,99277.91
2018-06-13T01:18:51.762Z,99273.27
2018-06-13T01:21:17.762Z,99271.20
2018-06-13T01:23:43.767Z,99269.80
2018-06-13T01:26:09.761Z,99263.23
2018-06-13T01:28:35.755Z,99268.53
2018-06-13T01:31:01.803Z,99259.25
2018-06-13T01:33:27.826Z,99265.99
2018-06-13T01:35:53.860Z,99264.85
2018-06-13T01:38:19.860Z,99255.41
2018-06-13T01:40:45.842Z,99260.00
2018-06-13T01:43:11.845Z,99253.97
2018-06-13T01:45:37.856Z,99254.42
2018-06-13T01:48:03.849Z,99246.91
2018-06-13T01:50:29.827Z,99251.27
2018-06-13T01:52:55.840Z,99249.54
2018-06-13T01:55:21.843Z,99242.09
2018-06-13T01:57:47.871Z,99248.44
2018-06-13T02:00:13.887Z,99244.02
2018-06-13T02:02:39.884Z,99251.59
2018-06-13T02:05:05.863Z,99249.81
2018-06-13T02:07:31.876Z,99253.31
2018-06-13T02:09:57.899Z,99252.84
2018-06-13T02:12:23.899Z,99254.78
2018-06-13T02:14:49.916Z,99260.22
2018-06-13T02:17:15.934Z,99261.11
2018-06-13T02:19:41.924Z,99254.95
2018-06-13T02:22:07.908Z,99256.16
2018-06-13T02:24:33.968Z,99258.02
2018-06-13T02:27:00.003Z,99268.45
2018-06-13T02:29:26.017Z,99270.59
2018-06-13T02:31:52.004Z,99263.33
2018-06-13T02:34:18.022Z,99257.69
2018-06-13T02:36:44.012Z,99254.78
2018-06-13T02:39:10.004Z,99259.75
2018-06-13T02:41:35.991Z,99260.98
2018-06-13T02:44:02.079Z,99261.63
2018-06-13T02:46:28.081Z,99262.72
2018-06-13T02:48:54.097Z,99263.05
2018-06-13T02:51:20.129Z,99264.86
2018-06-13T02:53:46.152Z,99264.75
2018-06-13T02:56:12.157Z,99266.27
2018-06-13T02:58:38.216Z,99260.70
2018-06-13T03:01:04.254Z,99264.45
2018-06-13T03:03:30.297Z,99261.41
2018-06-13T03:05:56.288Z,99264.83
2018-06-13T03:08:22.309Z,99268.87
2018-06-13T03:10:48.296Z,99274.45
2018-06-13T03:13:14.328Z,99274.86
2018-06-13T03:15:40.320Z,99265.55
2018-06-13T03:18:06.314Z,99268.34
2018-06-13T03:20:32.368Z,99265.91
2018-06-13T03:22:58.375Z,99272.54
2018-06-13T03:25:24.373Z,99274.81
2018-06-13T03:27:50.375Z,99279.56
2018-06-13T03:30:16.411Z,99278.23
2018-06-13T03:32:42.420Z,99280.12
2018-06-13T03:35:08.447Z,99280.23
2018-06-13T03:37:34.450Z,99285.70
2018-06-13T03:40:00.515Z,99290.78
2018-06-13T03:42:26.564Z,99300.41
2018-06-13T03:44:52.572Z,99298.48
2018-06-13T03:47:18.576Z,99295.17
2018-06-13T03:49:44.578Z,99304.83
2018-06-13T03:52:10.578Z,99309.32
2018-06-13T03:54:36.585Z,99311.16
2018-06-13T03:57:02.679Z,99313.27
2018-06-13T03:59:28.673Z,99314.70
2018-06-13T04:01:54.681Z,99307.33
2018-06-13T04:04:20.692Z,99309.09
2018-06-13T04:06:46.680Z,99319.86
2018-06-13T04:09:12.661Z,99320.71
2018-06-13T04:11:38.618Z,99322.74
2018-06-13T04:14:04.581Z,99316.75
2018-06-13T04:16:30.531Z,99314.02
2018-06-13T04:18:56.554Z,99313.88
2018-06-13T04:21:22.516Z,99316.17
2018-06-13T04:23:48.462Z,99320.98
2018-06-13T04:26:14.397Z,99320.42
2018-06-13T04:28:40.375Z,99328.59
2018-06-13T04:31:06.327Z,99332.45
2018-06-13T04:33:32.256Z,99328.48
2018-06-13T04:35:58.230Z,99329.48
2018-06-13T04:38:24.185Z,99331.37
2018-06-13T04:40:50.137Z,99331.97
2018-06-13T04:43:16.096Z,99335.05
2018-06-13T04:45:42.065Z,99334.91
2018-06-13T04:48:08.008Z,99331.34
2018-06-13T04:50:33.965Z,99338.36
2018-06-13T04:52:59.911Z,99347.83
2018-06-13T04:55:25.878Z,99345.33
2018-06-13T04:57:51.838Z,99346.52
2018-06-13T05:00:17.800Z,99353.37
2018-06-13T05:02:43.782Z,99358.31
2018-06-13T05:05:09.725Z,99353.99
2018-06-13T05:07:35.669Z,99358.19
2018-06-13T05:10:01.631Z,99359.00
2018-06-13T05:12:27.587Z,99354.48
2018-06-13T05:14:53.586Z,99359.41
2018-06-13T05:17:19.505Z,99358.09
2018-06-13T05:19:45.469Z,99353.95
2018-06-13T05:22:11.467Z,99350.06
2018-06-13T05:24:37.423Z,99352.03
2018-06-13T05:27:03.480Z,99356.24
2018-06-13T05:29:29.464Z,99353.69
2018-06-13T05:31:55.448Z,99355.97
2018-06-13T05:34:21.420Z,99356.45
2018-06-13T05:36:47.383Z,99359.09
2018-06-13T05:39:13.322Z,99353.19
2018-06-13T05:41:39.272Z,99347.95
2018-06-13T05:44:05.204Z,99352.83
2018-06-13T05:46:31.171Z,99349.98
2018-06-13T05:48:57.127Z,99355.92
2018-06-13T05:51:23.075Z,99352.54
2018-06-13T05:53:49.037Z,99355.77
2018-06-13T05:56:15.037Z,99359.09
2018-06-13T05:58:40.978Z,99350.17
2018-06-13T06:01:06.990Z,99359.53
2018-06-13T06:03:32.925Z,99359.94
2018-06-13T06:05:58.917Z,99363.84
2018-06-13T06:08:24.954Z,99356.39
2018-06-13T06:10:50.958Z,99368.58
2018-06-13T06:13:16.949Z,99371.52
2018-06-13T06:15:42.909Z,99373.92
2018-06-13T06:18:08.975Z,99370.18
2018-06-13T06:20:34.935Z,99369.73
2018-06-13T06:23:00.877Z,99365.15
2018-06-13T06:25:26.812Z,99366.59
2018-06-13T06:27:52.756Z,99372.70
2018-06-13T06:30:18.739Z,99372.66
2018-06-13T06:32:44.699Z,99368.68
2018-06-13T06:35:10.656Z,99370.38
2018-06-13T06:37:36.599Z,99375.92
2018-06-13T06:40:02.529Z,99375.05
2018-06-13T06:42:28.460Z,99373.73
2018-06-13T06:44:54.403Z,99378.92
2018-06-13T06:47:20.359Z,99385.17
2018-06-13T06:49:46.331Z,99383.05
2018-06-13T06:52:12.281Z,99380.77
2018-06-13T06:54:38.213Z,99383.97
2018-06-13T06:57:04.194Z,99391.13
2018-06-13T06:59:30.152Z,99391.98
2018-06-13T07:01:56.122Z,99387.57
2018-06-13T07:04:22.097Z,99392.06
2018-06-13T07:06:48.065Z,99396.97
2018-06-13T07:09:14.016Z,99393.84
2018-06-13T07:11:39.964Z,99393.09
2018-06-13T07:14:05.924Z,99390.13
2018-06-13T07:16:31.885Z,99395.71
2018-06-13T07:18:57.907Z,99387.09
2018-06-13T07:21:23.827Z,99381.98
2018-06-13T07:23:49.784Z,99389.70
2018-06-13T07:26:15.793Z,99387.03
2018-06-13T07:28:41.748Z,99386.86
2018-06-13T07:31:07.752Z,99386.49
2018-06-13T07:33:33.742Z,99391.02
2018-06-13T07:35:59.676Z,99389.81
2018-06-13T07:38:25.614Z,99394.05
2018-06-13T07:40:51.548Z,99396.22
2018-06-13T07:43:17.488Z,99399.84
2018-06-13T07:45:43.448Z,99403.61
2018-06-13T07:48:09.416Z,99407.54
2018-06-13T07:50:35.357Z,99411.61
2018-06-13T07:53:01.316Z,99408.55
2018-06-13T07:55:27.368Z,99420.20
2018-06-13T07:57:53.312Z,99413.77
2018-06-13T08:00:19.256Z,99415.44
2018-06-13T08:02:45.197Z,99418.61
2018-06-13T08:05:11.183Z,99424.03
2018-06-13T08:07:37.148Z,99421.12
2018-06-13T08:10:03.118Z,99418.98
2018-06-13T08:12:29.055Z,99426.80
2018-06-13T08:14:54.996Z,99423.51
2018-06-13T08:17:20.933Z,99425.68
2018-06-13T08:19:46.870Z,99421.75
2018-06-13T08:22:12.832Z,99419.39
2018-06-13T08:24:38.784Z,99423.32
2018-06-13T08:27:04.736Z,99419.63
2018-06-13T08:29:30.724Z,99423.61
2018-06-13T08:31:56.686Z,99421.32
2018-06-13T08:34:22.633Z,99425.52
2018-06-13T08:36:48.564Z,99420.34
2018-06-13T08:39:14.514Z,99423.39
2018-06-13T08:41:40.451Z,99425.49
2018-06-13T08:44:06.395Z,99429.98
2018-06-13T08:46:32.416Z,99425.62
2018-06-13T08:48:58.384Z,99429.13
2018-06-13T08:51:24.340Z,99431.66
2018-06-13T08:53:50.327Z,99425.98
2018-06-13T08:56:16.285Z,99426.55
2018-06-13T08:58:42.227Z,99416.08
2018-06-13T09:01:08.161Z,99416.63
2018-06-13T09:03:34.131Z,99420.08
2018-06-13T09:06:00.096Z,99414.18
2018-06-13T09:08:26.139Z,99407.97
2018-06-13T09:10:52.124Z,99416.90
2018-06-13T09:13:18.105Z,99409.72
2018-06-13T09:15:44.063Z,99412.91
2018-06-13T09:18:10.011Z,99423.77
2018-06-13T09:20:35.994Z,99424.02
2018-06-13T09:23:01.942Z,99424.85
2018-06-13T09:25:27.886Z,99424.59
2018-06-13T09:27:53.847Z,99431.40
2018-06-13T09:30:19.876Z,99434.37
2018-06-13T09:32:45.839Z,99430.68
2018-06-13T09:35:11.796Z,99427.45
2018-06-13T09:37:37.867Z,99436.27
2018-06-13T09:40:03.857Z,99439.10
2018-06-13T09:42:29.837Z,99439.44
2018-06-13T09:44:55.781Z,99432.67
2018-06-13T09:47:23.454Z,99439.18
2018-06-13T09:49:47.724Z,99436.59
2018-06-13T09:52:13.659Z,99443.83
2018-06-13T09:54:39.672Z,99437.06
2018-06-13T09:57:05.697Z,99435.89
2018-06-13T09:59:31.729Z,99435.66
2018-06-13T10:01:57.721Z,99433.47
2018-06-13T10:04:23.768Z,99435.39
2018-06-13T10:06:49.814Z,99435.19
2018-06-13T10:09:15.822Z,99429.09
2018-06-13T10:11:42.872Z,99433.44
2018-06-13T10:14:08.917Z,99438.92
2018-06-13T10:16:39.121Z,99437.94
2018-06-13T10:19:05.165Z,99437.33
2018-06-13T10:21:31.307Z,99429.55
2018-06-13T10:23:58.325Z,99434.04
2018-06-13T10:26:24.430Z,99436.79
2018-06-13T10:28:50.558Z,99433.41
2018-06-13T10:31:16.604Z,99430.77
2018-06-13T10:33:42.629Z,99431.55
2018-06-13T10:36:08.668Z,99433.88
2018-06-13T10:38:34.708Z,99437.53
2018-06-13T10:41:00.728Z,99434.45
2018-06-13T10:43:26.715Z,99432.48
2018-06-13T10:45:52.770Z,99434.39
2018-06-13T10:48:18.783Z,99437.58
2018-06-13T10:50:44.839Z,99433.48
2018-06-13T10:53:10.838Z,99431.23
2018-06-13T10:55:36.994Z,99437.17
2018-06-13T10:58:03.004Z,99433.98
2018-06-13T11:00:28.999Z,99437.09
2018-06-13T11:02:55.033Z,99435.56
2018-06-13T11:05:21.065Z,99435.06
2018-06-13T11:07:47.080Z,99434.22
2018-06-13T11:10:13.140Z,99437.81
2018-06-13T11:12:40.116Z,99433.30
2018-06-13T11:15:06.207Z,99433.29
2018-06-13T11:17:32.344Z,99434.47
2018-06-13T11:19:58.380Z,99438.72
2018-06-13T11:22:24.484Z,99439.84
2018-06-13T11:24:50.583Z,99441.94
2018-06-13T11:27:16.538Z,99446.98
2018-06-13T11:29:42.562Z,99441.63
2018-06-13T11:32:08.563Z,99448.66
2018-06-13T11:34:34.579Z,99442.55
2018-06-13T11:37:00.666Z,99437.81
2018-06-13T11:39:26.620Z,99449.94
2018-06-13T11:41:53.648Z,99438.84
2018-06-13T11:44:19.632Z,99439.02
2018-06-13T11:46:45.625Z,99438.52
2018-06-13T11:49:11.616Z,99439.80
2018-06-13T11:51:37.646Z,99425.47
2018-06-13T11:54:03.680Z,99426.41
2018-06-13T11:56:29.673Z,99425.22
2018-06-13T11:58:55.645Z,99425.77
2018-06-13T12:01:21.679Z,99422.61
2018-06-13T12:03:47.654Z,99427.68
2018-06-13T12:06:13.737Z,99425.53
2018-06-13T12:08:39.670Z,99426.30
2018-06-13T12:11:06.398Z,99422.70
2018-06-13T12:13:32.437Z,99431.40
2018-06-13T12:15:58.445Z,99432.20
2018-06-13T12:18:24.407Z,99430.61
2018-06-13T12:20:50.440Z,99431.41
2018-06-13T12:23:16.466Z,99434.01
2018-06-13T12:25:42.530Z,99422.63
2018-06-13T12:28:08.522Z,99436.55
2018-06-13T12:30:35.208Z,99439.14
2018-06-13T12:33:01.151Z,99432.34
2018-06-13T12:35:27.143Z,99431.77
2018-06-13T12:37:53.104Z,99433.86
2018-06-13T12:40:19.206Z,99434.48
2018-06-13T12:42:45.218Z,99430.94
2018-06-13T12:45:11.210Z,99438.11
2018-06-13T12:47:37.207Z,99431.03
2018-06-13T12:50:03.179Z,99436.21
2018-06-13T12:52:29.175Z,99443.64
2018-06-13T12:54:55.151Z,99447.25
2018-06-13T12:57:21.096Z,99443.78
2018-06-13T12:59:47.033Z,99439.77
2018-06-13T13:02:12.965Z,99440.79
2018-06-13T13:04:38.974Z,99440.48
2018-06-13T13:07:04.915Z,99435.56
2018-06-13T13:09:30.846Z,99437.13
2018-06-13T13:11:56.864Z,99443.94
2018-06-13T13:14:22.791Z,99441.05
2018-06-13T13:16:48.765Z,99447.03
2018-06-13T13:19:14.726Z,99447.72
2018-06-13T13:21:40.673Z,99442.32
2018-06-13T13:24:06.628Z,99446.77
2018-06-13T13:26:32.588Z,99445.91
2018-06-13T13:28:58.516Z,99440.68
2018-06-13T13:31:24.476Z,99451.69
2018-06-13T13:33:50.453Z,99449.44
2018-06-13T13:36:16.398Z,99456.22
2018-06-13T13:38:42.334Z,99458.16
2018-06-13T13:41:08.325Z,99453.15
2018-06-13T13:43:34.266Z,99454.05
2018-06-13T13:46:00.580Z,99455.05
2018-06-13T13:48:26.493Z,99460.52
2018-06-13T13:50:52.438Z,99459.92
2018-06-13T13:53:18.378Z,99467.31
2018-06-13T13:55:44.338Z,99464.28
2018-06-13T13:58:10.299Z,99469.46
2018-06-13T14:00:36.289Z,99475.08
2018-06-13T14:03:02.233Z,99468.86
2018-06-13T14:05:28.197Z,99478.11
2018-06-13T14:07:54.157Z,99476.13
2018-06-13T14:10:20.118Z,99474.13
2018-06-13T14:12:46.081Z,99480.08
2018-06-13T14:15:12.036Z,99484.73
2018-06-13T14:17:38.013Z,99478.78
2018-06-13T14:20:03.998Z,99490.42
2018-06-13T14:22:30.062Z,99493.74
2018-06-13T14:24:56.836Z,99489.41
2018-06-13T14:27:22.786Z,99490.20
2018-06-13T14:29:48.717Z,99491.69
2018-06-13T14:32:14.727Z,99490.01
2018-06-13T14:34:40.708Z,99494.51
2018-06-13T14:37:06.652Z,99494.03
2018-06-13T14:39:32.662Z,99487.55
2018-06-13T14:41:58.677Z,99483.67
2018-06-13T14:44:24.631Z,99487.05
2018-06-13T14:46:50.703Z,99483.69
2018-06-13T14:49:16.666Z,99486.03
2018-06-13T14:51:42.600Z,99488.63
2018-06-13T14:54:08.548Z,99485.77
2018-06-13T14:56:34.560Z,99484.63
2018-06-13T14:59:00.481Z,99491.05
2018-06-13T15:01:26.429Z,99488.44
2018-06-13T15:03:52.624Z,99494.19
2018-06-13T15:06:18.578Z,99496.17
2018-06-13T15:08:44.546Z,99494.00
2018-06-13T15:11:10.528Z,99487.09
2018-06-13T15:13:36.499Z,99496.50
2018-06-13T15:16:02.489Z,99505.91
2018-06-13T15:18:28.474Z,99509.22
2018-06-13T15:20:54.469Z,99511.68
2018-06-13T15:23:20.488Z,99515.98
2018-06-13T15:25:46.515Z,99518.58
2018-06-13T15:28:12.516Z,99526.09
2018-06-13T15:30:39.501Z,99520.46
2018-06-13T15:33:05.481Z,99514.45
2018-06-13T15:35:31.462Z,99516.50
2018-06-13T15:37:57.447Z,99515.17
2018-06-13T15:40:23.468Z,99515.38
2018-06-13T15:42:49.537Z,99519.77
2018-06-13T15:45:15.574Z,99520.55
2018-06-13T15:47:41.575Z,99522.02
2018-06-13T15:50:07.815Z,99525.58
2018-06-13T15:52:33.854Z,99527.28
2018-06-13T15:55:00.076Z,99531.58
2018-06-13T15:57:26.241Z,99527.03
2018-06-13T15:59:52.337Z,99535.23
2018-06-13T16:02:18.339Z,99540.12
2018-06-13T16:04:44.302Z,99545.01
2018-06-13T16:07:10.284Z,99548.39
2018-06-13T16:09:36.267Z,99552.84
2018-06-13T16:12:02.209Z,99551.44
2018-06-13T16:14:28.337Z,99557.19
2018-06-13T16:16:54.324Z,99558.44
2018-06-13T16:19:20.322Z,99565.45
2018-06-13T16:21:46.345Z,99570.66
2018-06-13T16:24:12.379Z,99573.03
2018-06-13T16:26:38.364Z,99578.16
2018-06-13T16:29:04.680Z,99575.85
2018-06-13T16:31:30.689Z,99578.48
2018-06-13T16:33:56.674Z,99588.92
2018-06-13T16:36:22.636Z,99586.75
2018-06-13T16:38:48.632Z,99584.61
2018-06-13T16:41:14.657Z,99585.75
2018-06-13T16:43:40.695Z,99586.94
2018-06-13T16:46:07.193Z,99589.78
2018-06-13T16:48:33.312Z,99590.19
2018-06-13T16:50:59.224Z,99590.95
2018-06-13T16:53:25.213Z,99596.30
2018-06-13T16:55:51.190Z,99598.03
2018-06-13T16:58:18.255Z,99599.88
2018-06-13T17:00:44.277Z,99595.35
2018-06-13T17:03:10.283Z,99600.30
2018-06-13T17:05:36.296Z,99596.61
2018-06-13T17:08:02.258Z,99602.94
2018-06-13T17:10:28.240Z,99604.42
2018-06-13T17:12:54.241Z,99601.37
2018-06-13T17:15:20.315Z,99602.95
2018-06-13T17:17:46.357Z,99607.50
2018-06-13T17:20:12.356Z,99609.80
2018-06-13T17:22:38.342Z,99608.84
2018-06-13T17:25:04.328Z,99609.58
2018-06-13T17:27:30.337Z,99613.80
2018-06-13T17:29:56.383Z,99614.56
